COOK1: Arkansas River Nr Coolidge, KS

                                SHEF ID:       COOK1     ARKANSAS R NR COOLIDGE, KS
STATION TYPE:
Regulating: Stage = 8.00, Flow = 2050

PRECIP STAGE STAGE(2) RIV-FLOW WTR-TEMP CONDUCT BAT-LOAD
in ft ft cfs F umho/cm volt
Ccp-Rev Ccp-Rev Ccp-Rev Ccp-Rev Ccp-Rev Ccp-Rev Ccp-Rev
(America/Chicago)
07/12 00:00 0.00 2.82 2.97 85 77.61 5553 12.95
07/12 01:00 0.00 2.82 2.96 85 76.21 5551 12.89
07/12 02:00 0.00 2.81 2.96 84 74.84 5555 12.89
07/12 03:00 0.00 2.80 2.93 82 73.62 5566 12.89
07/12 04:00 0.00 2.81 2.94 84 72.32 5580 12.89
07/12 05:00 0.00 2.81 2.97 84 71.49 5612 12.89
07/12 06:00 0.00 2.80 2.94 82 70.57 5659 12.89
07/12 07:00 0.00 2.82 2.96 85 69.62 5681 12.83
07/12 08:00 0.00 2.86 3.00 89 69.12 5654 12.83
07/12 09:00 0.00 2.92 3.06 96 69.73 5472 12.89
07/12 10:00 0.00 3.00 3.18 106 71.28 5378 13.18
07/12 11:00 0.00 3.09 3.29 117 72.50 5481 13.53
07/12 12:00 0.00 3.15 3.35 125 74.03 4781 13.71
07/12 13:00 0.00 3.20 3.35 132 75.18 4021 13.71
07/12 14:00 0.00 3.19 3.36 131 76.75 3875 13.71
07/12 15:00 0.00 3.18 3.37 129 78.15 3766 13.59
07/12 16:00 0.00 3.15 3.32 125 79.86 3593 13.53
07/12 17:00 0.00 3.28 3.44 144 81.03 3791 13.42
07/12 18:00 0.00 3.22 3.37 135 82.33 4198 13.30
07/12 19:00 0.00 3.06 3.23 113 83.10 4423 13.18
07/12 20:00 0.00 2.96 3.14 101 82.62 4716 13.12
07/12 21:00 0.00 2.91 3.08 95 81.46 4873 13.07
07/12 22:00 0.00 2.88 3.01 91 80.10 5107 13.00
07/12 23:00 ---- ---- ---- ---- ---- ---- ----
Data processed at Sat 13Jul2024 04:30 GMT

Parsing this webpage?

Checkout our new Data API! CWMSDataAPI (CDA)

Timeseries IDs (TSIDs)

TSIDs used from left to right in the data table
COOL.Precip-Inc.Total.1Hour.1Hour.Ccp-Rev
COOL.Stage.Inst.1Hour.0.Ccp-Rev
COOL.Stage-Alt.Inst.1Hour.0.Ccp-Rev
COOL.Flow.Inst.1Hour.0.Ccp-Rev
COOL.Temp-Water.Inst.1Hour.0.Ccp-Rev
COOL.Cond.Inst.1Hour.0.Ccp-Rev
COOL.Volt-Battery Load.Inst.1Hour.0.Ccp-Rev

                            

All information presented herein is the property of the government of the United States of America and may be revised or deleted at any time without prior notice. Dissemination of this information without the expressed written consent of the Public Affairs Office, Tulsa District U.S. Army Corps of Engineers is strictly prohibited. These data are gathered electronically and, as presented, have NOT undergone any form of quality control. These data are NOT guaranteed to be valid or correct.